createdAt,value
2018-07-15T00:02:26.593Z,66.80
2018-07-15T00:04:55.352Z,66.30
2018-07-15T00:07:24.183Z,66.20
2018-07-15T00:09:52.953Z,66.00
2018-07-15T00:12:21.692Z,65.90
2018-07-15T00:14:50.527Z,65.90
2018-07-15T00:17:19.231Z,65.70
2018-07-15T00:19:47.958Z,65.80
2018-07-15T00:22:16.801Z,65.80
2018-07-15T00:24:45.505Z,65.90
2018-07-15T00:27:14.284Z,65.90
2018-07-15T00:29:43.046Z,66.00
2018-07-15T00:32:11.955Z,66.20
2018-07-15T00:34:40.710Z,66.30
2018-07-15T00:37:09.528Z,66.50
2018-07-15T00:39:38.284Z,66.60
2018-07-15T00:42:07.019Z,66.80
2018-07-15T00:44:35.917Z,66.90
2018-07-15T00:47:04.800Z,67.00
2018-07-15T00:49:33.752Z,67.20
2018-07-15T00:52:02.546Z,67.20
2018-07-15T00:54:31.305Z,67.40
2018-07-15T00:57:00.056Z,67.00
2018-07-15T00:59:28.809Z,67.90
2018-07-15T01:01:57.541Z,68.00
2018-07-15T01:04:27.277Z,69.10
2018-07-15T01:09:25.596Z,67.60
2018-07-15T01:11:54.422Z,68.40
2018-07-15T01:14:23.153Z,68.40
2018-07-15T01:16:51.944Z,68.50
2018-07-15T01:19:20.773Z,68.40
2018-07-15T01:24:18.177Z,68.60
2018-07-15T01:26:47.254Z,68.70
2018-07-15T01:29:16.012Z,68.60
2018-07-15T01:31:44.734Z,68.50
2018-07-15T01:34:13.544Z,68.50
2018-07-15T01:36:42.267Z,68.50
2018-07-15T01:39:11.052Z,69.20
2018-07-15T01:41:39.838Z,68.40
2018-07-15T01:44:08.565Z,68.30
2018-07-15T01:49:06.088Z,68.40
2018-07-15T01:51:34.942Z,68.30
2018-07-15T01:54:03.663Z,68.30
2018-07-15T01:56:39.019Z,68.50
2018-07-15T01:59:07.956Z,68.60
2018-07-15T02:01:36.854Z,68.60
2018-07-15T02:04:05.618Z,68.60
2018-07-15T02:09:02.873Z,68.70
2018-07-15T02:11:31.622Z,68.80
2018-07-15T02:14:00.588Z,69.80
2018-07-15T02:16:29.303Z,69.10
2018-07-15T02:18:58.087Z,69.10
2018-07-15T02:21:26.839Z,69.10
2018-07-15T02:26:24.173Z,69.10
2018-07-15T02:28:53.005Z,69.10
2018-07-15T02:33:50.443Z,69.10
2018-07-15T02:36:19.241Z,69.20
2018-07-15T02:38:47.963Z,69.30
2018-07-15T02:41:16.749Z,69.40
2018-07-15T02:43:45.480Z,69.40
2018-07-15T02:46:14.264Z,69.50
2018-07-15T02:48:42.974Z,69.60
2018-07-15T02:51:11.753Z,70.00
2018-07-15T02:53:40.606Z,70.00
2018-07-15T02:56:09.384Z,70.10
2018-07-15T02:58:38.116Z,70.10
2018-07-15T03:01:06.883Z,70.10
2018-07-15T03:03:35.613Z,70.20
2018-07-15T03:06:04.372Z,70.50
2018-07-15T03:08:33.097Z,70.60
2018-07-15T03:11:01.843Z,70.80
2018-07-15T03:13:30.576Z,71.00
2018-07-15T03:15:59.385Z,71.20
2018-07-15T03:18:28.177Z,71.50
2018-07-15T03:20:56.943Z,71.60
2018-07-15T03:23:25.687Z,71.90
2018-07-15T03:25:54.436Z,71.90
2018-07-15T03:30:51.775Z,71.80
2018-07-15T03:33:20.712Z,71.80
2018-07-15T03:35:49.506Z,71.80
2018-07-15T03:38:18.300Z,71.50
2018-07-15T03:40:47.151Z,71.40
2018-07-15T03:43:15.965Z,71.30
2018-07-15T03:45:44.773Z,71.20
2018-07-15T03:48:13.535Z,71.00
2018-07-15T03:53:10.746Z,70.60
2018-07-15T03:55:39.513Z,70.50
2018-07-15T03:58:08.257Z,70.40
2018-07-15T04:00:37.130Z,70.10
2018-07-15T04:03:06.361Z,69.70
2018-07-15T04:08:03.585Z,70.30
2018-07-15T04:10:32.356Z,70.40
2018-07-15T04:13:01.108Z,70.30
2018-07-15T04:18:04.694Z,69.80
2018-07-15T04:20:34.965Z,69.80
2018-07-15T04:23:04.671Z,70.00
2018-07-15T04:25:34.354Z,70.10
2018-07-15T04:28:03.886Z,70.10
2018-07-15T04:30:32.713Z,70.10
2018-07-15T04:33:01.475Z,70.10
2018-07-15T04:35:30.213Z,70.40
2018-07-15T04:37:59.116Z,70.50
2018-07-15T04:40:27.793Z,70.70
2018-07-15T04:42:56.628Z,71.10
2018-07-15T04:45:25.383Z,70.90
2018-07-15T04:47:54.146Z,70.80
2018-07-15T04:50:22.876Z,70.20
2018-07-15T04:57:48.797Z,70.10
2018-07-15T05:00:17.580Z,69.20
2018-07-15T05:02:46.416Z,69.40
2018-07-15T05:05:15.105Z,69.80
2018-07-15T05:07:43.844Z,69.00
2018-07-15T05:10:12.605Z,68.60
2018-07-15T05:12:41.375Z,68.30
2018-07-15T05:15:10.134Z,68.30
2018-07-15T05:17:38.934Z,68.50
2018-07-15T05:20:07.733Z,68.40
2018-07-15T05:25:05.087Z,67.00
2018-07-15T05:27:33.784Z,67.20
2018-07-15T05:30:02.522Z,67.40
2018-07-15T05:32:31.264Z,67.40
2018-07-15T05:37:28.504Z,67.40
2018-07-15T05:39:57.284Z,67.60
2018-07-15T05:42:26.037Z,67.00
2018-07-15T05:44:54.853Z,66.70
2018-07-15T05:47:23.682Z,67.00
2018-07-15T05:49:52.570Z,67.00
2018-07-15T05:52:21.315Z,67.10
2018-07-15T05:54:50.034Z,67.20
2018-07-15T05:57:18.879Z,67.40
2018-07-15T05:59:47.750Z,67.00
2018-07-15T06:02:16.499Z,67.20
2018-07-15T06:04:45.247Z,67.20
2018-07-15T06:07:14.082Z,66.90
2018-07-15T06:09:42.853Z,66.20
2018-07-15T06:12:11.610Z,65.90
2018-07-15T06:14:40.390Z,65.90
2018-07-15T06:17:09.194Z,65.90
2018-07-15T06:19:37.923Z,65.30
2018-07-15T06:22:06.664Z,65.70
2018-07-15T06:24:35.560Z,65.20
2018-07-15T06:27:04.326Z,65.30
2018-07-15T06:29:33.105Z,64.90
2018-07-15T06:32:01.825Z,65.00
2018-07-15T06:34:30.594Z,64.90
2018-07-15T06:36:59.385Z,65.40
2018-07-15T06:39:28.172Z,65.30
2018-07-15T06:41:56.932Z,65.00
2018-07-15T06:44:25.876Z,64.80
2018-07-15T06:46:54.744Z,64.00
2018-07-15T06:49:23.549Z,64.60
2018-07-15T06:51:52.247Z,64.70
2018-07-15T06:54:21.275Z,64.00
2018-07-15T06:56:50.175Z,64.20
2018-07-15T06:59:19.004Z,64.40
2018-07-15T07:01:47.752Z,63.20
2018-07-15T07:04:16.652Z,63.70
2018-07-15T07:06:45.598Z,63.50
2018-07-15T07:09:14.327Z,63.10
2018-07-15T07:14:11.693Z,63.90
2018-07-15T07:16:40.502Z,63.20
2018-07-15T07:21:37.709Z,60.90
2018-07-15T07:24:06.784Z,61.00
2018-07-15T07:26:35.521Z,60.90
2018-07-15T07:29:04.473Z,60.90
2018-07-15T07:31:33.222Z,61.40
2018-07-15T07:34:02.066Z,61.00
2018-07-15T07:36:31.491Z,60.20
2018-07-15T07:39:00.326Z,60.20
2018-07-15T07:41:29.119Z,60.30
2018-07-15T07:43:57.932Z,57.50
2018-07-15T07:46:26.662Z,57.80
2018-07-15T07:48:55.439Z,58.00
2018-07-15T07:51:24.288Z,58.50
2018-07-15T07:53:53.073Z,58.80
2018-07-15T07:56:21.844Z,57.30
2018-07-15T07:58:50.675Z,57.80
2018-07-15T08:01:19.492Z,57.90
2018-07-15T08:03:48.248Z,57.20
2018-07-15T08:06:16.968Z,57.40
2018-07-15T08:08:45.757Z,57.30
2018-07-15T08:11:14.477Z,57.00
2018-07-15T08:16:11.742Z,57.40
2018-07-15T08:18:40.472Z,57.30
2018-07-15T08:21:09.319Z,57.10
2018-07-15T08:23:38.092Z,57.50
2018-07-15T08:26:06.823Z,57.40
2018-07-15T08:28:35.756Z,57.10
2018-07-15T08:31:13.197Z,57.40
2018-07-15T08:33:41.993Z,57.40
2018-07-15T08:36:11.305Z,57.50
2018-07-15T08:38:40.569Z,57.70
2018-07-15T08:41:09.382Z,57.50
2018-07-15T08:43:38.160Z,57.30
2018-07-15T08:46:07.734Z,57.50
2018-07-15T08:48:36.465Z,57.40
2018-07-15T08:51:05.197Z,57.50
2018-07-15T08:53:34.031Z,57.50
2018-07-15T08:56:02.936Z,57.10
2018-07-15T08:58:31.684Z,57.40
2018-07-15T09:01:00.434Z,57.10
2018-07-15T09:03:29.221Z,56.90
2018-07-15T09:05:58.142Z,56.70
2018-07-15T09:08:26.976Z,56.70
2018-07-15T09:10:55.720Z,56.70
2018-07-15T09:13:24.612Z,56.60
2018-07-15T09:15:53.380Z,56.20
2018-07-15T09:18:22.305Z,56.40
2018-07-15T09:20:51.226Z,56.60
2018-07-15T09:23:19.977Z,56.80
2018-07-15T09:25:48.727Z,56.20
2018-07-15T09:28:17.557Z,56.20
2018-07-15T09:30:46.344Z,56.60
2018-07-15T09:33:15.063Z,56.50
2018-07-15T09:35:43.908Z,56.60
2018-07-15T09:38:12.828Z,56.40
2018-07-15T09:40:41.680Z,55.60
2018-07-15T09:43:10.524Z,55.20
2018-07-15T09:45:39.311Z,55.50
2018-07-15T09:50:36.591Z,55.50
2018-07-15T09:53:05.555Z,55.80
2018-07-15T09:55:34.418Z,55.50
2018-07-15T09:58:03.162Z,55.40
2018-07-15T10:00:37.619Z,55.50
2018-07-15T10:03:06.523Z,55.40
2018-07-15T10:05:35.246Z,56.20
2018-07-15T10:08:03.979Z,55.50
2018-07-15T10:10:32.774Z,55.40
2018-07-15T10:13:01.490Z,55.90
2018-07-15T10:15:30.378Z,56.00
2018-07-15T10:17:59.187Z,56.00
2018-07-15T10:22:56.496Z,55.40
2018-07-15T10:25:25.236Z,55.50
2018-07-15T10:27:53.992Z,55.90
2018-07-15T10:30:22.926Z,56.00
2018-07-15T10:35:20.499Z,55.60
2018-07-15T10:40:17.790Z,55.60
2018-07-15T10:42:46.668Z,55.80
2018-07-15T10:47:43.956Z,55.60
2018-07-15T10:50:12.879Z,56.10
2018-07-15T10:52:41.659Z,55.90
2018-07-15T10:55:10.448Z,55.90
2018-07-15T10:57:39.328Z,56.10
2018-07-15T11:00:08.072Z,55.90
2018-07-15T11:02:36.813Z,55.90
2018-07-15T11:05:06.675Z,56.00
2018-07-15T11:07:35.577Z,56.00
2018-07-15T11:10:04.525Z,56.00
2018-07-15T11:12:33.259Z,56.20
2018-07-15T11:17:30.505Z,54.90
2018-07-15T11:19:59.536Z,55.00
2018-07-15T11:22:28.370Z,54.60
2018-07-15T11:27:25.600Z,54.30
2018-07-15T11:29:54.372Z,53.90
2018-07-15T11:32:23.257Z,54.80
2018-07-15T11:34:52.013Z,55.50
2018-07-15T11:37:21.039Z,55.30
2018-07-15T11:39:49.898Z,55.50
2018-07-15T11:42:18.783Z,55.30
2018-07-15T11:44:47.729Z,55.10
2018-07-15T11:47:16.519Z,55.70
2018-07-15T11:49:45.385Z,55.30
2018-07-15T11:52:14.179Z,54.20
2018-07-15T11:54:42.940Z,53.80
2018-07-15T11:57:11.698Z,54.00
2018-07-15T11:59:40.799Z,53.30
2018-07-15T12:02:09.864Z,53.20
2018-07-15T12:04:39.192Z,53.50
2018-07-15T12:07:08.055Z,53.90
2018-07-15T12:09:36.916Z,53.80
2018-07-15T12:12:05.691Z,53.90
2018-07-15T12:14:34.466Z,54.30
2018-07-15T12:17:03.246Z,53.70
2018-07-15T12:19:31.984Z,53.80
2018-07-15T12:22:00.862Z,53.90
2018-07-15T12:24:29.619Z,53.40
2018-07-15T12:26:59.183Z,53.20
2018-07-15T12:29:27.907Z,53.00
2018-07-15T12:31:56.660Z,53.40
2018-07-15T12:36:54.031Z,53.60
2018-07-15T12:39:22.774Z,53.50
2018-07-15T12:41:51.516Z,52.90
2018-07-15T12:44:20.356Z,52.80
2018-07-15T12:46:49.104Z,52.50
2018-07-15T12:49:18.012Z,53.00
2018-07-15T12:51:46.996Z,52.80
2018-07-15T12:54:15.806Z,52.60
2018-07-15T12:59:13.132Z,53.20
2018-07-15T13:04:10.317Z,53.20
2018-07-15T13:06:39.081Z,53.20
2018-07-15T13:09:07.903Z,53.00
2018-07-15T13:11:36.738Z,53.50
2018-07-15T13:14:05.623Z,52.10
2018-07-15T13:16:34.587Z,52.70
2018-07-15T13:19:03.942Z,52.90
2018-07-15T13:21:32.759Z,52.90
2018-07-15T13:24:01.534Z,53.00
2018-07-15T13:26:30.367Z,52.50
2018-07-15T13:28:59.151Z,51.70
2018-07-15T13:31:27.913Z,51.50
2018-07-15T13:36:25.210Z,52.20
2018-07-15T13:38:54.103Z,52.20
2018-07-15T13:41:22.861Z,51.90
2018-07-15T13:43:51.624Z,51.60
2018-07-15T13:46:20.748Z,52.20
2018-07-15T13:48:49.587Z,52.60
2018-07-15T13:51:18.339Z,51.90
2018-07-15T13:53:47.093Z,52.10
2018-07-15T13:56:15.872Z,51.60
2018-07-15T13:58:44.686Z,51.60
2018-07-15T14:03:41.935Z,50.50
2018-07-15T14:06:10.671Z,51.10
2018-07-15T14:08:39.402Z,51.10
2018-07-15T14:11:08.206Z,51.50
2018-07-15T14:16:05.476Z,50.60
2018-07-15T14:18:34.365Z,51.20
2018-07-15T14:21:03.490Z,51.70
2018-07-15T14:23:32.244Z,51.50
2018-07-15T14:26:01.073Z,51.00
2018-07-15T14:28:29.951Z,50.70
2018-07-15T14:30:58.800Z,50.90
2018-07-15T14:33:27.661Z,50.40
2018-07-15T14:35:56.504Z,49.70
2018-07-15T14:40:53.783Z,49.80
2018-07-15T14:43:22.583Z,50.10
2018-07-15T14:45:51.382Z,50.70
2018-07-15T14:48:20.286Z,50.70
2018-07-15T14:50:49.076Z,51.00
2018-07-15T14:53:17.825Z,50.60
2018-07-15T14:58:15.508Z,50.90
2018-07-15T15:03:12.788Z,50.70
2018-07-15T15:05:41.688Z,50.40
2018-07-15T15:10:38.929Z,50.50
2018-07-15T15:13:07.784Z,50.40
2018-07-15T15:18:04.971Z,50.30
2018-07-15T15:20:33.774Z,50.30
2018-07-15T15:23:02.566Z,50.00
2018-07-15T15:25:31.375Z,49.60
2018-07-15T15:28:00.161Z,49.40
2018-07-15T15:30:28.992Z,49.60
2018-07-15T15:32:57.743Z,49.70
2018-07-15T15:35:26.498Z,49.20
2018-07-15T15:37:55.250Z,49.90
2018-07-15T15:40:24.030Z,50.10
2018-07-15T15:42:52.832Z,49.70
2018-07-15T15:45:21.618Z,49.70
2018-07-15T15:47:50.407Z,50.20
2018-07-15T15:50:19.175Z,50.20
2018-07-15T15:52:48.015Z,50.30
2018-07-15T15:55:16.776Z,49.50
2018-07-15T15:57:45.505Z,49.20
2018-07-15T16:00:14.300Z,49.70
2018-07-15T16:02:43.070Z,49.70
2018-07-15T16:05:11.928Z,50.50
2018-07-15T16:07:40.710Z,49.40
2018-07-15T16:10:09.539Z,49.40
2018-07-15T16:12:38.276Z,49.50
2018-07-15T16:15:08.150Z,49.70
2018-07-15T16:17:37.080Z,49.10
2018-07-15T16:20:06.939Z,49.40
2018-07-15T16:22:35.727Z,49.50
2018-07-15T16:25:04.658Z,49.30
2018-07-15T16:27:33.789Z,49.50
2018-07-15T16:30:02.561Z,49.00
2018-07-15T16:32:31.283Z,48.50
2018-07-15T16:35:00.267Z,47.80
2018-07-15T16:37:29.103Z,48.20
2018-07-15T16:42:26.350Z,49.00
2018-07-15T16:44:55.086Z,49.00
2018-07-15T16:47:24.047Z,48.70
2018-07-15T16:49:52.819Z,47.80
2018-07-15T16:52:21.729Z,47.90
2018-07-15T16:54:50.727Z,48.20
2018-07-15T16:57:19.513Z,48.00
2018-07-15T16:59:48.307Z,48.10
2018-07-15T17:04:45.700Z,48.30
2018-07-15T17:07:14.492Z,47.30
2018-07-15T17:09:43.276Z,47.50
2018-07-15T17:12:12.045Z,47.60
2018-07-15T17:14:40.808Z,47.20
2018-07-15T17:17:09.575Z,46.00
2018-07-15T17:19:38.350Z,45.80
2018-07-15T17:22:07.123Z,45.50
2018-07-15T17:24:35.911Z,45.40
2018-07-15T17:27:04.691Z,45.80
2018-07-15T17:29:33.463Z,45.30
2018-07-15T17:32:02.226Z,45.40
2018-07-15T17:34:30.999Z,45.50
2018-07-15T17:36:59.825Z,45.50
2018-07-15T17:39:28.600Z,45.30
2018-07-15T17:41:57.330Z,45.10
2018-07-15T17:44:26.085Z,45.70
2018-07-15T17:46:54.814Z,45.80
2018-07-15T17:49:23.561Z,45.30
2018-07-15T17:51:52.382Z,45.50
2018-07-15T17:54:21.127Z,45.80
2018-07-15T17:56:49.878Z,44.80
2018-07-15T17:59:18.599Z,45.50
2018-07-15T18:01:47.412Z,45.60
2018-07-15T18:04:16.142Z,45.60
2018-07-15T18:06:44.959Z,46.10
2018-07-15T18:09:13.790Z,46.00
2018-07-15T18:14:10.988Z,45.70
2018-07-15T18:16:39.796Z,46.20
2018-07-15T18:19:08.599Z,46.70
2018-07-15T18:21:37.378Z,46.70
2018-07-15T18:24:06.174Z,47.10
2018-07-15T18:26:34.936Z,46.90
2018-07-15T18:29:03.758Z,47.30
2018-07-15T18:31:32.504Z,47.40
2018-07-15T18:34:01.290Z,47.40
2018-07-15T18:36:30.034Z,47.50
2018-07-15T18:38:58.788Z,47.60
2018-07-15T18:41:27.566Z,47.60
2018-07-15T18:43:56.476Z,47.80
2018-07-15T18:46:25.204Z,47.80
2018-07-15T18:48:53.991Z,47.80
2018-07-15T18:53:51.222Z,48.20
2018-07-15T18:56:19.992Z,47.70
2018-07-15T18:58:48.791Z,48.00
2018-07-15T19:01:17.605Z,48.20
2018-07-15T19:03:46.364Z,48.30
2018-07-15T19:06:15.121Z,48.60
2018-07-15T19:08:43.931Z,48.80
2018-07-15T19:11:12.933Z,48.90
2018-07-15T19:13:41.676Z,49.10
2018-07-15T19:16:10.500Z,49.40
2018-07-15T19:18:39.253Z,49.70
2018-07-15T19:21:08.075Z,49.90
2018-07-15T19:23:36.797Z,50.10
2018-07-15T19:26:05.600Z,50.40
2018-07-15T19:28:34.385Z,50.50
2018-07-15T19:31:03.172Z,50.70
2018-07-15T19:33:31.926Z,50.90
2018-07-15T19:36:00.720Z,51.30
2018-07-15T19:38:29.543Z,51.40
2018-07-15T19:40:58.331Z,51.60
2018-07-15T19:43:27.087Z,51.80
2018-07-15T19:45:55.958Z,52.70
2018-07-15T19:48:24.683Z,52.10
2018-07-15T19:50:53.452Z,52.20
2018-07-15T19:53:22.220Z,52.60
2018-07-15T19:58:19.464Z,53.40
2018-07-15T20:00:48.232Z,53.50
2018-07-15T20:03:16.996Z,54.40
2018-07-15T20:05:45.758Z,53.90
2018-07-15T20:08:14.548Z,54.20
2018-07-15T20:10:43.288Z,54.50
2018-07-15T20:13:12.163Z,54.80
2018-07-15T20:15:40.839Z,55.10
2018-07-15T20:18:09.612Z,55.50
2018-07-15T20:20:38.394Z,55.80
2018-07-15T20:23:07.175Z,56.30
2018-07-15T20:25:35.912Z,56.50
2018-07-15T20:28:04.683Z,56.80
2018-07-15T20:30:33.471Z,57.00
2018-07-15T20:33:02.223Z,57.30
2018-07-15T20:37:59.433Z,57.90
2018-07-15T20:40:28.256Z,58.30
2018-07-15T20:42:57.027Z,59.30
2018-07-15T20:45:25.834Z,58.50
2018-07-15T20:47:54.653Z,58.70
2018-07-15T20:50:23.479Z,58.90
2018-07-15T20:52:52.660Z,58.90
2018-07-15T20:55:21.419Z,58.90
2018-07-15T21:00:18.630Z,60.50
2018-07-15T21:02:47.544Z,60.90
2018-07-15T21:05:16.296Z,60.90
2018-07-15T21:07:45.169Z,60.00
2018-07-15T21:10:13.970Z,59.50
2018-07-15T21:12:42.839Z,59.40
2018-07-15T21:15:11.602Z,59.20
2018-07-15T21:17:40.364Z,59.00
2018-07-15T21:20:09.115Z,59.50
2018-07-15T21:22:37.878Z,59.50
2018-07-15T21:25:06.676Z,59.30
2018-07-15T21:27:35.396Z,59.20
2018-07-15T21:30:04.162Z,59.40
2018-07-15T21:37:29.897Z,59.30
2018-07-15T21:39:58.614Z,59.50
2018-07-15T21:42:27.381Z,59.60
2018-07-15T21:47:24.632Z,59.90
2018-07-15T21:49:53.387Z,60.20
2018-07-15T21:52:22.147Z,60.30
2018-07-15T21:54:50.944Z,60.60
2018-07-15T21:57:19.714Z,60.70
2018-07-15T21:59:48.496Z,60.80
2018-07-15T22:04:45.688Z,61.10
2018-07-15T22:07:25.927Z,61.00
2018-07-15T22:12:30.833Z,61.40
2018-07-15T22:14:59.637Z,61.60
2018-07-15T22:17:28.419Z,61.70
2018-07-15T22:19:57.212Z,61.90
2018-07-15T22:22:25.981Z,62.10
2018-07-15T22:24:54.775Z,62.30
2018-07-15T22:27:23.520Z,62.30
2018-07-15T22:29:52.324Z,62.50
2018-07-15T22:32:21.119Z,62.90
2018-07-15T22:34:49.896Z,63.00
2018-07-15T22:37:18.681Z,63.40
2018-07-15T22:39:47.454Z,63.40
2018-07-15T22:42:16.241Z,63.70
2018-07-15T22:44:45.010Z,63.90
2018-07-15T22:47:13.771Z,64.40
2018-07-15T22:49:42.523Z,64.60
2018-07-15T22:52:11.289Z,65.20
2018-07-15T22:54:40.095Z,65.30
2018-07-15T22:57:08.966Z,65.70
2018-07-15T22:59:37.684Z,65.50
2018-07-15T23:02:06.449Z,65.60
2018-07-15T23:05:47.249Z,65.50
2018-07-15T23:08:16.315Z,65.70
2018-07-15T23:10:45.137Z,65.60
2018-07-15T23:13:14.210Z,66.10
2018-07-15T23:18:12.104Z,66.50
2018-07-15T23:20:41.733Z,66.50
2018-07-15T23:23:16.536Z,66.60
2018-07-15T23:25:45.329Z,66.60
2018-07-15T23:28:15.412Z,66.60
2018-07-15T23:30:44.680Z,66.60
2018-07-15T23:33:13.851Z,66.70
2018-07-15T23:35:42.622Z,66.80
2018-07-15T23:38:11.390Z,66.90
2018-07-15T23:40:40.139Z,67.10
2018-07-15T23:43:09.003Z,67.20
2018-07-15T23:45:37.779Z,67.30
2018-07-15T23:50:35.163Z,67.60
2018-07-15T23:53:03.915Z,67.70
2018-07-15T23:55:32.685Z,67.80
2018-07-15T23:58:01.496Z,68.00
